createdAt,value
2023-03-23T15:59:55.488Z,13.59
2023-03-23T16:02:24.146Z,13.69
2023-03-23T16:04:51.618Z,13.83
2023-03-23T16:07:21.327Z,13.77
2023-03-23T16:09:48.402Z,13.69
2023-03-23T16:12:15.581Z,13.75
2023-03-23T16:14:42.828Z,13.70
2023-03-23T16:17:11.787Z,13.75
2023-03-23T16:19:38.825Z,13.67
2023-03-23T16:22:05.904Z,13.79
2023-03-23T16:24:32.912Z,13.79
2023-03-23T16:26:59.990Z,13.85
2023-03-23T16:29:40.556Z,13.80
2023-03-23T16:32:14.799Z,13.76
2023-03-23T16:34:41.855Z,13.72
2023-03-23T16:37:11.978Z,13.71
2023-03-23T16:39:39.021Z,13.67
2023-03-23T16:42:06.081Z,13.64
2023-03-23T16:44:33.199Z,13.61
2023-03-23T16:47:00.404Z,13.56
2023-03-23T16:49:27.519Z,13.46
2023-03-23T16:51:54.627Z,13.45
2023-03-23T16:54:22.056Z,13.45
2023-03-23T16:56:49.336Z,13.44
2023-03-23T16:59:16.769Z,13.40
2023-03-23T17:01:43.950Z,13.38
2023-03-23T17:04:12.008Z,13.30
2023-03-23T17:06:39.206Z,13.33
2023-03-23T17:09:07.375Z,13.35
2023-03-23T17:11:34.557Z,13.20
2023-03-23T17:14:01.702Z,13.21
2023-03-23T17:16:28.830Z,13.25
2023-03-23T17:18:56.070Z,13.26
2023-03-23T17:21:25.730Z,13.26
2023-03-23T17:23:53.035Z,13.21
2023-03-23T17:26:20.257Z,13.19
2023-03-23T17:28:47.458Z,13.13
2023-03-23T17:31:14.572Z,13.10
2023-03-23T17:33:42.527Z,13.04
2023-03-23T17:36:09.895Z,12.92
2023-03-23T17:38:37.078Z,12.97
2023-03-23T17:41:06.407Z,12.94
2023-03-23T17:43:33.762Z,12.96
2023-03-23T17:46:00.838Z,12.97
2023-03-23T17:48:27.913Z,12.92
2023-03-23T17:50:57.550Z,12.84
2023-03-23T17:53:25.543Z,12.79
2023-03-23T17:55:53.336Z,12.78
2023-03-23T17:58:21.219Z,12.78
2023-03-23T18:00:48.352Z,12.75
2023-03-23T18:03:15.992Z,12.73
2023-03-23T18:05:43.215Z,12.72
2023-03-23T18:08:10.715Z,12.72
2023-03-23T18:10:39.068Z,12.72
2023-03-23T18:13:07.079Z,12.70
2023-03-23T18:15:35.012Z,12.66
2023-03-23T18:18:03.625Z,12.63
2023-03-23T18:20:31.513Z,12.56
2023-03-23T18:22:58.985Z,12.53
2023-03-23T18:25:26.251Z,12.48
2023-03-23T18:27:53.405Z,12.46
2023-03-23T18:30:20.688Z,12.44
2023-03-23T18:32:48.020Z,12.44
2023-03-23T18:35:15.559Z,12.39
2023-03-23T18:37:43.558Z,12.37
2023-03-23T18:40:11.183Z,12.38
2023-03-23T18:42:42.291Z,12.32
2023-03-23T18:45:09.796Z,12.27
2023-03-23T18:47:38.586Z,12.28
2023-03-23T18:50:06.964Z,12.23
2023-03-23T18:52:34.348Z,12.22
2023-03-23T18:55:01.657Z,12.20
2023-03-23T18:57:28.754Z,12.16
2023-03-23T18:59:56.354Z,12.14
2023-03-23T19:02:23.764Z,12.15
2023-03-23T19:04:51.550Z,12.06
2023-03-23T19:07:19.869Z,12.05
2023-03-23T19:09:47.422Z,12.03
2023-03-23T19:12:15.653Z,12.02
2023-03-23T19:14:42.991Z,12.03
2023-03-23T19:17:10.300Z,11.99
2023-03-23T19:19:38.404Z,11.99
2023-03-23T19:22:06.562Z,11.98
2023-03-23T19:24:33.661Z,11.98
2023-03-23T19:27:01.725Z,11.96
2023-03-23T19:29:29.505Z,11.98
2023-03-23T19:31:56.977Z,11.99
2023-03-23T19:34:24.678Z,11.97
2023-03-23T19:36:56.316Z,11.94
2023-03-23T19:39:30.953Z,11.95
2023-03-23T19:41:58.167Z,11.94
2023-03-23T19:44:25.576Z,11.93
2023-03-23T19:46:53.362Z,11.90
2023-03-23T19:49:21.621Z,11.91
2023-03-23T19:51:49.055Z,11.91
2023-03-23T19:54:16.243Z,11.86
2023-03-23T19:56:43.727Z,11.83
2023-03-23T19:59:14.400Z,11.87
2023-03-23T20:01:43.061Z,11.86
2023-03-23T20:04:11.390Z,11.85
2023-03-23T20:06:39.047Z,11.84
2023-03-23T20:09:07.275Z,11.81
2023-03-23T20:11:35.209Z,11.82
2023-03-23T20:14:02.493Z,11.79
2023-03-23T20:16:29.616Z,11.78
2023-03-23T20:18:59.948Z,11.77
2023-03-23T20:21:28.078Z,11.78
2023-03-23T20:23:56.934Z,11.78
2023-03-23T20:26:32.854Z,11.77
2023-03-23T20:29:00.626Z,11.75
2023-03-23T20:31:29.298Z,11.78
2023-03-23T20:34:02.358Z,11.78
2023-03-23T20:36:35.547Z,11.78
2023-03-23T20:39:05.235Z,11.78
2023-03-23T20:41:33.222Z,11.77
2023-03-23T20:44:00.274Z,11.77
2023-03-23T20:46:27.893Z,11.77
2023-03-23T20:48:55.106Z,11.73
2023-03-23T20:51:22.224Z,11.72
2023-03-23T20:53:50.116Z,11.71
2023-03-23T20:56:17.358Z,11.68
2023-03-23T20:58:44.615Z,11.68
2023-03-23T21:01:12.013Z,11.66
2023-03-23T21:03:40.654Z,11.69
2023-03-23T21:06:08.400Z,11.67
2023-03-23T21:08:37.215Z,11.67
2023-03-23T21:11:05.609Z,11.66
2023-03-23T21:13:33.045Z,11.69
2023-03-23T21:16:01.185Z,11.69
2023-03-23T21:18:28.670Z,11.68
2023-03-23T21:20:57.224Z,11.69
2023-03-23T21:23:26.507Z,11.67
2023-03-23T21:25:54.870Z,11.67
2023-03-23T21:28:22.157Z,11.64
2023-03-23T21:30:52.417Z,11.63
2023-03-23T21:33:20.050Z,11.63
2023-03-23T21:35:47.223Z,11.64
2023-03-23T21:38:14.872Z,11.63
2023-03-23T21:40:42.092Z,11.60
2023-03-23T21:43:14.725Z,11.59
2023-03-23T21:45:42.576Z,11.59
2023-03-23T21:48:10.628Z,11.58
2023-03-23T21:50:38.552Z,11.61
2023-03-23T21:53:05.693Z,11.60
2023-03-23T21:55:33.618Z,11.60
2023-03-23T21:58:01.018Z,11.59
2023-03-23T22:00:29.692Z,11.60
2023-03-23T22:02:57.185Z,11.61
2023-03-23T22:05:42.710Z,11.59
2023-03-23T22:08:14.646Z,11.54
2023-03-23T22:10:42.695Z,11.58
2023-03-23T22:13:28.864Z,11.57
2023-03-23T22:15:57.107Z,11.59
2023-03-23T22:18:24.322Z,11.57
2023-03-23T22:20:52.244Z,11.54
2023-03-23T22:23:19.440Z,11.55
2023-03-23T22:25:46.658Z,11.53
2023-03-23T22:28:13.858Z,11.53
2023-03-23T22:30:41.126Z,11.49
2023-03-23T22:33:08.292Z,11.51
2023-03-23T22:35:35.946Z,11.51
2023-03-23T22:38:03.340Z,11.49
2023-03-23T22:40:31.254Z,11.47
2023-03-23T22:42:58.449Z,11.46
2023-03-23T22:45:27.255Z,11.45
2023-03-23T22:47:54.602Z,11.40
2023-03-23T22:50:24.049Z,11.38
2023-03-23T22:52:51.265Z,11.39
2023-03-23T22:55:18.396Z,11.36
2023-03-23T22:57:45.772Z,11.36
2023-03-23T23:00:15.932Z,11.32
2023-03-23T23:02:43.206Z,11.32
2023-03-23T23:05:11.080Z,11.30
2023-03-23T23:07:38.898Z,11.29
2023-03-23T23:10:06.374Z,11.27
2023-03-23T23:12:35.120Z,11.26
2023-03-23T23:15:03.709Z,11.24
2023-03-23T23:17:34.614Z,11.23
2023-03-23T23:20:05.601Z,11.21
2023-03-23T23:22:33.220Z,11.20
2023-03-23T23:25:01.104Z,11.19
2023-03-23T23:27:28.298Z,11.16
2023-03-23T23:29:55.356Z,11.14
2023-03-23T23:32:22.496Z,11.16
2023-03-23T23:34:49.721Z,11.13
2023-03-23T23:37:16.777Z,11.10
2023-03-23T23:39:43.931Z,11.08
2023-03-23T23:42:11.436Z,11.04
2023-03-23T23:44:39.023Z,11.07
2023-03-23T23:47:06.035Z,11.02
2023-03-23T23:49:34.310Z,11.02
2023-03-23T23:52:01.537Z,10.98
2023-03-23T23:54:31.752Z,10.95
2023-03-23T23:56:59.679Z,10.91
2023-03-23T23:59:27.058Z,10.86
